Time;durP1;ratioP1;P1;durP2;ratioP2;P2;SDS_P1;SDS_P2;PMS_P1;PMS_P2;Temp;Humidity;BMP_temperature;BMP_pressure;BME280_temperature;BME280_humidity;BME280_pressure;Samples;Min_cycle;Max_cycle;Signal;HPM_P1;HPM_P2
2022/12/07 00:02:00;;;;;;;6.57;3.53;;;5.00;97.70;;;;;;6255508;22;20051;-84
2022/12/07 00:04:27;;;;;;;6.20;4.05;;;4.90;97.70;;;;;;6256935;22;20022;-90
2022/12/07 00:06:54;;;;;;;5.50;3.40;;;4.90;97.70;;;;;;6257230;22;20117;-90
2022/12/07 00:09:24;;;;;;;6.97;3.78;;;4.80;97.80;;;;;;6282098;22;20043;-87
2022/12/07 00:11:51;;;;;;;6.32;3.85;;;4.70;97.80;;;;;;6256505;22;20027;-90
2022/12/07 00:14:19;;;;;;;7.32;3.83;;;4.70;97.80;;;;;;6282318;22;20020;-85
2022/12/07 00:16:57;;;;;;;6.63;3.65;;;4.70;97.90;;;;;;6282063;22;20011;-87
2022/12/07 00:19:27;;;;;;;8.20;4.20;;;4.60;97.90;;;;;;6282088;22;20022;-86
2022/12/07 00:22:05;;;;;;;5.85;3.55;;;4.60;98.00;;;;;;6307500;22;20043;-87
2022/12/07 00:24:40;;;;;;;6.35;3.80;;;4.60;98.00;;;;;;6282512;22;20110;-87
2022/12/07 00:27:15;;;;;;;6.60;3.85;;;4.50;98.00;;;;;;6282513;22;20026;-87
2022/12/07 00:29:45;;;;;;;7.30;4.47;;;4.50;98.00;;;;;;6256603;22;20458;-87
2022/12/07 00:32:15;;;;;;;7.93;4.03;;;4.50;98.00;;;;;;6281533;22;20088;-87
2022/12/07 00:34:45;;;;;;;;;;;4.50;98.00;;;;;;6282348;22;20016;-87
2022/12/07 00:37:12;;;;;;;6.28;3.20;;;4.40;98.00;;;;;;6282158;22;19915;-87
2022/12/07 00:39:40;;;;;;;8.20;3.30;;;4.40;98.00;;;;;;6281317;22;20027;-87
2022/12/07 00:42:28;;;;;;;5.75;3.28;;;4.40;98.00;;;;;;6261119;22;20110;-87
2022/12/07 00:44:59;;;;;;;7.57;2.85;;;4.40;98.00;;;;;;6282619;22;20019;-87
2022/12/07 00:47:35;;;;;;;5.05;3.38;;;4.40;98.00;;;;;;6282789;22;20026;-87
2022/12/07 00:50:11;;;;;;;5.90;3.22;;;4.30;98.00;;;;;;6281855;22;20019;-87
2022/12/07 00:52:41;;;;;;;4.32;2.28;;;4.40;98.10;;;;;;6282195;22;20456;-87
2022/12/07 00:55:27;;;;;;;7.28;2.80;;;4.40;98.10;;;;;;6281830;22;20019;-87
2022/12/07 00:58:26;;;;;;;5.35;2.15;;;4.40;98.00;;;;;;6276630;22;20118;-87
2022/12/07 01:01:13;;;;;;;;;;;;;;;;;;;;;
2022/12/07 01:03:55;;;;;;;4.38;2.17;;;4.30;98.00;;;;;;6306879;22;20019;-87
2022/12/07 01:06:34;;;;;;;4.45;2.30;;;4.30;98.10;;;;;;6283373;22;20106;-87
2022/12/07 01:09:06;;;;;;;3.00;1.77;;;4.20;98.10;;;;;;6281351;22;20122;-86
2022/12/07 01:12:00;;;;;;;3.35;1.75;;;4.20;98.10;;;;;;6307494;22;20023;-87
2022/12/07 01:14:27;;;;;;;5.43;2.13;;;4.20;98.10;;;;;;6281409;22;20132;-87
2022/12/07 01:16:55;;;;;;;4.25;1.60;;;4.10;98.10;;;;;;6307118;22;20015;-87
2022/12/07 01:19:36;;;;;;;3.20;1.60;;;4.10;98.10;;;;;;6283569;22;20090;-87
2022/12/07 01:22:15;;;;;;;4.85;2.28;;;4.10;98.10;;;;;;6283371;22;20015;-87
2022/12/07 01:25:03;;;;;;;4.68;2.20;;;4.10;98.20;;;;;;6306910;22;20016;-87
2022/12/07 01:27:30;;;;;;;4.10;2.22;;;4.10;98.20;;;;;;6281110;22;20110;-87
2022/12/07 01:30:06;;;;;;;6.85;2.95;;;4.00;98.10;;;;;;6281744;22;20019;-87
2022/12/07 01:32:36;;;;;;;6.47;2.90;;;4.10;98.20;;;;;;6280951;22;20023;-87
2022/12/07 01:35:07;;;;;;;5.80;3.40;;;4.10;98.20;;;;;;6254981;22;20022;-86
2022/12/07 01:37:36;;;;;;;6.07;2.90;;;4.10;98.20;;;;;;6281129;22;20023;-87
2022/12/07 01:40:06;;;;;;;7.47;4.07;;;4.10;98.10;;;;;;6281231;22;20046;-87
2022/12/07 01:42:45;;;;;;;5.30;2.70;;;4.20;98.10;;;;;;6281443;22;20456;-87
2022/12/07 01:45:54;;;;;;;;;;;;;;;;;;;;;
2022/12/07 01:48:51;;;;;;;;;;;;;;;;;;;;;
2022/12/07 01:51:25;;;;;;;5.60;2.80;;;4.10;98.10;;;;;;6284343;22;20476;-87
2022/12/07 01:53:56;;;;;;;5.10;2.50;;;4.00;98.10;;;;;;6281293;22;20049;-87
2022/12/07 01:56:47;;;;;;;3.30;1.95;;;4.00;98.10;;;;;;6284184;22;20464;-87
2022/12/07 01:59:56;;;;;;;6.47;2.47;;;4.00;98.10;;;;;;6305163;22;20019;-88
2022/12/07 02:03:01;;;;;;;7.65;2.33;;;4.00;98.10;;;;;;6306847;22;20027;-87
2022/12/07 02:05:44;;;;;;;5.20;1.90;;;3.90;98.10;;;;;;6281721;22;20072;-87
2022/12/07 02:08:45;;;;;;;3.38;1.50;;;3.90;98.10;;;;;;6283427;22;20046;-87
2022/12/07 02:11:54;;;;;;;3.20;1.77;;;3.80;98.10;;;;;;6284822;22;20015;-87
2022/12/07 02:14:46;;;;;;;4.25;1.92;;;3.80;98.20;;;;;;6276644;22;20020;-87
2022/12/07 02:17:17;;;;;;;4.13;1.73;;;3.80;98.20;;;;;;6250941;22;20016;-88
2022/12/07 02:20:44;;;;;;;;;;;;;;;;;;;;;
2022/12/07 02:23:53;;;;;;;;;;;;;;;;;;;;;
2022/12/07 02:27:26;;;;;;;5.15;1.92;;;3.80;98.40;;;;;;6270089;22;20496;-87
2022/12/07 02:30:26;;;;;;;4.95;1.90;;;3.80;98.10;;;;;;6254673;22;20454;-92
2022/12/07 02:33:35;;;;;;;;;;;;;;;;;;;;;
2022/12/07 02:36:24;;;;;;;5.25;3.08;;;3.70;98.20;;;;;;6276746;22;20019;-92
2022/12/07 02:39:41;;;;;;;6.82;3.05;;;3.70;98.20;;;;;;6253732;22;20099;-93
2022/12/07 02:42:45;;;;;;;5.90;2.92;;;3.70;98.20;;;;;;6256473;22;20015;-93
2022/12/07 02:46:00;;;;;;;8.43;3.50;;;3.70;98.10;;;;;;6275494;22;20019;-93
2022/12/07 02:56:45;;;;;;;5.07;2.65;;;3.70;98.10;;;;;;6277016;22;20433;-92
2022/12/07 03:00:25;;;;;;;4.75;2.47;;;3.70;98.10;;;;;;6254588;22;20073;-92
2022/12/07 03:04:31;;;;;;;;;;;;;;;;;;;;;
2022/12/07 03:07:49;;;;;;;;;;;;;;;;;;;;;
2022/12/07 03:11:49;;;;;;;;;;;;;;;;;;;;;
2022/12/07 03:15:46;;;;;;;7.00;2.90;;;3.80;98.10;;;;;;6186399;23;20100;-91
2022/12/07 03:19:25;;;;;;;5.43;2.67;;;3.80;98.00;;;;;;6122000;23;20092;-92
2022/12/07 03:26:08;;;;;;;6.38;2.83;;;3.90;97.90;;;;;;6144031;23;20028;-92
2022/12/07 03:29:36;;;;;;;6.15;3.40;;;3.90;97.90;;;;;;6124797;23;20021;-92
2022/12/07 03:33:00;;;;;;;5.47;2.15;;;4.00;97.90;;;;;;6088136;23;20092;-92
2022/12/07 03:36:27;;;;;;;7.70;2.72;;;4.00;97.80;;;;;;6081640;23;20025;-93
2022/12/07 03:39:48;;;;;;;5.22;2.00;;;4.00;97.80;;;;;;6131836;23;20056;-93
2022/12/07 03:42:56;;;;;;;4.07;1.55;;;4.00;97.80;;;;;;6153391;23;20068;-93
2022/12/07 03:46:40;;;;;;;3.33;1.50;;;4.10;97.80;;;;;;6131391;23;20027;-92
2022/12/07 03:50:16;;;;;;;5.85;1.95;;;4.10;97.80;;;;;;6103960;23;20085;-92
2022/12/07 03:52:58;;;;;;;4.53;2.05;;;4.10;97.80;;;;;;6108869;23;20045;-92
2022/12/07 03:56:07;;;;;;;4.35;1.33;;;4.10;97.70;;;;;;6131767;23;20069;-92
2022/12/07 03:59:08;;;;;;;3.40;1.90;;;4.20;97.70;;;;;;6132434;23;20428;-91
2022/12/07 04:02:02;;;;;;;4.25;1.50;;;4.10;97.70;;;;;;6109941;23;20021;-92
2022/12/07 04:05:10;;;;;;;4.15;1.95;;;4.20;97.70;;;;;;6156396;23;20073;-92
2022/12/07 04:08:04;;;;;;;2.95;1.40;;;4.20;97.70;;;;;;6247496;22;20050;-92
2022/12/07 04:11:18;;;;;;;4.55;2.10;;;4.10;97.70;;;;;;6244912;23;20017;-92
2022/12/07 04:14:52;;;;;;;5.55;1.80;;;4.10;97.70;;;;;;6229493;23;20035;-92
2022/12/07 04:18:11;;;;;;;;;;;;;;;;;;;;;
2022/12/07 04:21:18;;;;;;;4.22;1.15;;;4.10;97.70;;;;;;6232482;23;20020;-92
2022/12/07 04:24:34;;;;;;;;;;;;;;;;;;;;;
2022/12/07 04:36:29;;;;;;;2.15;0.70;;;4.10;97.60;;;;;;6181360;23;20020;-91
2022/12/07 04:39:44;;;;;;;1.60;0.40;;;4.10;97.70;;;;;;6224799;22;20461;-91
2022/12/07 04:42:38;;;;;;;3.30;1.27;;;4.20;97.70;;;;;;6126059;23;20029;-92
2022/12/07 04:45:12;;;;;;;4.50;0.93;;;4.20;97.70;;;;;;6101807;23;20040;-91
2022/12/07 04:48:21;;;;;;;;;;;;;;;;;;;;;
2022/12/07 04:51:46;;;;;;;;;;;;;;;;;;;;;
2022/12/07 04:55:16;;;;;;;3.83;1.05;;;4.30;97.60;;;;;;6002301;23;20367;-91
2022/12/07 04:58:48;;;;;;;;;;;;;;;;;;;;;
2022/12/07 05:01:49;;;;;;;;;;;;;;;;;;;;;
2022/12/07 05:17:25;;;;;;;;;;;;;;;;;;;;;
2022/12/07 05:20:18;;;;;;;2.42;0.90;;;3.80;97.50;;;;;;5930991;24;20012;-92
2022/12/07 05:23:58;;;;;;;;;;;;;;;;;;;;;
2022/12/07 05:44:46;;;;;;;;;;;;;;;;;;;;;
2022/12/07 06:08:16;;;;;;;;;;;;;;;;;;;;;
2022/12/07 06:22:04;;;;;;;2.42;0.65;;;3.10;97.90;;;;;;5866579;24;20390;-93
2022/12/07 06:29:10;;;;;;;1.80;1.00;;;2.90;98.00;;;;;;5788273;24;20019;-93
2022/12/07 06:41:39;;;;;;;;;;;;;;;;;;;;;
2022/12/07 06:49:57;;;;;;;;;;;;;;;;;;;;;
2022/12/07 07:04:49;;;;;;;2.60;0.70;;;2.70;98.20;;;;;;6033885;23;20020;-94
2022/12/07 07:09:11;;;;;;;;;;;;;;;;;;;;;
2022/12/07 07:13:38;;;;;;;;;;;;;;;;;;;;;
2022/12/07 07:17:38;;;;;;;;;;;;;;;;;;;;;
2022/12/07 07:51:33;;;;;;;2.03;0.50;;;2.80;98.00;;;;;;4870346;22;33084944;-92
2022/12/07 07:59:44;;;;;;;1.70;0.53;;;2.70;98.00;;;;;;6066095;23;20462;-93
2022/12/07 08:02:35;;;;;;;;;;;;;;;;;;;;;
2022/12/07 08:15:05;;;;;;;;;;;;;;;;;;;;;
2022/12/07 08:46:32;;;;;;;2.72;0.70;;;3.80;97.50;;;;;;6045111;23;20467;-91
2022/12/07 08:49:09;;;;;;;1.25;0.50;;;3.90;97.30;;;;;;6131953;23;20451;-92
2022/12/07 08:51:45;;;;;;;2.92;0.73;;;4.00;97.30;;;;;;6131033;23;20029;-91
2022/12/07 08:54:17;;;;;;;3.65;0.70;;;3.90;97.30;;;;;;6108789;23;20111;-90
2022/12/07 08:56:45;;;;;;;3.78;0.50;;;3.90;97.30;;;;;;6125675;23;20013;-91
2022/12/07 08:59:16;;;;;;;1.88;0.50;;;3.90;97.30;;;;;;6218927;22;20011;-89
2022/12/07 09:01:46;;;;;;;3.25;0.50;;;3.90;97.40;;;;;;6279443;22;20098;-92
2022/12/07 09:04:16;;;;;;;3.78;0.80;;;3.80;97.40;;;;;;6252965;22;20026;-92
2022/12/07 09:06:50;;;;;;;2.25;0.40;;;3.80;97.50;;;;;;6253991;22;20070;-91
2022/12/07 09:09:26;;;;;;;2.78;0.80;;;3.80;97.50;;;;;;6254664;22;20026;-92
2022/12/07 09:11:56;;;;;;;3.78;0.50;;;3.90;97.60;;;;;;6252804;22;20065;-93
2022/12/07 09:14:26;;;;;;;3.80;0.52;;;4.00;97.60;;;;;;6252582;22;20430;-91
2022/12/07 09:17:17;;;;;;;2.50;1.00;;;4.10;97.50;;;;;;6277592;22;20020;-92
2022/12/07 09:19:47;;;;;;;2.35;0.60;;;4.10;97.40;;;;;;6277827;22;20413;-92
2022/12/07 09:22:27;;;;;;;3.25;0.95;;;4.10;97.40;;;;;;6253721;22;20015;-93
2022/12/07 09:24:57;;;;;;;2.88;0.90;;;4.20;97.50;;;;;;6252407;22;20020;-92
2022/12/07 09:27:25;;;;;;;3.65;1.08;;;4.20;97.40;;;;;;6277493;22;20024;-91
2022/12/07 09:29:55;;;;;;;4.82;1.38;;;4.30;97.40;;;;;;6252766;22;20016;-92
2022/12/07 09:32:25;;;;;;;4.47;0.93;;;4.30;97.40;;;;;;6252563;22;20039;-92
2022/12/07 09:34:55;;;;;;;4.28;1.30;;;4.40;97.40;;;;;;6252501;22;20024;-93
2022/12/07 09:37:25;;;;;;;1.92;0.90;;;4.40;97.40;;;;;;6252346;22;20015;-92
2022/12/07 09:40:08;;;;;;;2.70;0.80;;;4.40;97.30;;;;;;6252982;22;20020;-93
2022/12/07 09:42:45;;;;;;;3.05;1.15;;;4.50;97.30;;;;;;6253181;22;20023;-92
2022/12/07 09:45:29;;;;;;;3.35;0.70;;;4.50;97.30;;;;;;6277505;22;20022;-92
2022/12/07 09:48:06;;;;;;;1.90;0.80;;;4.50;97.30;;;;;;6277404;22;20024;-92
2022/12/07 09:50:35;;;;;;;3.08;1.00;;;4.50;97.30;;;;;;6277540;22;20103;-92
2022/12/07 09:53:25;;;;;;;3.33;0.73;;;4.50;97.40;;;;;;6251652;22;20028;-92
2022/12/07 09:55:59;;;;;;;2.13;0.70;;;4.50;97.30;;;;;;6251938;22;20023;-91
2022/12/07 09:58:28;;;;;;;1.67;0.57;;;4.60;97.40;;;;;;6252046;22;20019;-92
2022/12/07 10:01:08;;;;;;;2.63;0.70;;;4.60;97.40;;;;;;6276961;22;20036;-92
2022/12/07 10:03:40;;;;;;;3.67;1.20;;;4.60;97.40;;;;;;6277012;22;20441;-89
2022/12/07 10:06:15;;;;;;;5.57;1.27;;;4.60;97.40;;;;;;6277202;22;20050;-89
2022/12/07 10:08:43;;;;;;;5.85;1.58;;;4.50;97.40;;;;;;6277149;22;20020;-89
2022/12/07 10:11:11;;;;;;;5.93;1.95;;;4.60;97.40;;;;;;6277283;22;20024;-89
2022/12/07 10:13:46;;;;;;;11.85;1.92;;;4.60;97.40;;;;;;6251955;22;20026;-89
2022/12/07 10:16:38;;;;;;;4.13;1.38;;;4.60;97.40;;;;;;6277016;22;20039;-89
2022/12/07 10:19:36;;;;;;;7.60;1.45;;;4.60;97.30;;;;;;6276554;22;20047;-89
2022/12/07 10:22:09;;;;;;;4.05;1.10;;;4.60;97.40;;;;;;6251096;22;20106;-89
2022/12/07 10:24:39;;;;;;;4.90;1.65;;;4.60;97.40;;;;;;6276653;22;20016;-89
2022/12/07 10:27:19;;;;;;;4.65;1.75;;;4.60;97.40;;;;;;6276494;22;20050;-89
2022/12/07 10:29:54;;;;;;;4.38;1.55;;;4.60;97.40;;;;;;6276960;22;20450;-90
2022/12/07 10:32:35;;;;;;;5.18;1.15;;;4.60;97.40;;;;;;6276598;22;20030;-90
2022/12/07 10:35:25;;;;;;;5.18;1.30;;;4.70;97.40;;;;;;6276940;22;20019;-89
2022/12/07 10:37:57;;;;;;;3.50;1.23;;;4.70;97.40;;;;;;6276512;22;20412;-90
2022/12/07 10:40:37;;;;;;;6.85;2.05;;;4.60;97.40;;;;;;6252125;22;20020;-90
2022/12/07 10:43:13;;;;;;;5.10;1.25;;;4.70;97.40;;;;;;6276657;22;20019;-90
2022/12/07 10:46:22;;;;;;;3.63;1.35;;;4.70;97.40;;;;;;6276262;22;20016;-90
2022/12/07 10:49:05;;;;;;;3.95;0.98;;;4.70;97.40;;;;;;6246688;22;20442;-90
2022/12/07 10:51:55;;;;;;;7.25;1.40;;;4.80;97.40;;;;;;6250949;22;20027;-89
2022/12/07 10:54:33;;;;;;;;;;;5.00;97.30;;;;;;6252721;22;20020;-92
2022/12/07 10:57:22;;;;;;;3.40;1.13;;;5.20;97.20;;;;;;6276927;22;19941;-91
2022/12/07 10:59:59;;;;;;;3.05;0.95;;;5.40;97.00;;;;;;6252133;22;20019;-92
2022/12/07 11:03:26;;;;;;;2.75;0.82;;;5.50;96.90;;;;;;6252394;22;20019;-92
2022/12/07 11:06:32;;;;;;;1.70;0.60;;;5.60;96.70;;;;;;6184476;23;20091;-88
2022/12/07 11:14:12;;;;;;;;;;;;;;;;;;;;;
2022/12/07 11:17:48;;;;;;;;;;;;;;;;;;;;;
2022/12/07 11:20:45;;;;;;;2.38;0.60;;;5.30;96.90;;;;;;6015186;23;20045;-89
2022/12/07 11:24:10;;;;;;;;;;;;;;;;;;;;;
2022/12/07 11:27:49;;;;;;;3.00;0.63;;;5.30;96.90;;;;;;6002842;23;20102;-89
2022/12/07 11:31:04;;;;;;;2.05;0.55;;;5.20;96.90;;;;;;5960417;23;20082;-89
2022/12/07 11:34:02;;;;;;;1.85;0.40;;;5.20;96.90;;;;;;6138169;22;20020;-89
2022/12/07 11:40:19;;;;;;;4.20;0.65;;;5.30;96.80;;;;;;6256480;22;20019;-88
2022/12/07 11:43:16;;;;;;;4.95;0.70;;;5.30;96.80;;;;;;6275827;22;20358;-95
2022/12/07 11:46:13;;;;;;;2.22;0.70;;;5.40;96.70;;;;;;6251365;22;20020;-84
2022/12/07 11:48:51;;;;;;;3.13;0.90;;;5.50;96.60;;;;;;6275474;22;20101;-83
2022/12/07 11:52:05;;;;;;;;;;;;;;;;;;;;;
2022/12/07 11:54:59;;;;;;;3.50;0.70;;;5.60;96.50;;;;;;6259070;22;20099;-83
2022/12/07 11:57:44;;;;;;;3.70;0.70;;;5.70;96.40;;;;;;6249368;22;20399;-84
2022/12/07 12:00:16;;;;;;;4.40;0.80;;;5.70;96.30;;;;;;6274865;22;20016;-87
2022/12/07 12:03:05;;;;;;;3.25;0.80;;;5.80;96.30;;;;;;6250640;22;20027;-82
2022/12/07 12:05:32;;;;;;;4.43;0.80;;;5.80;96.30;;;;;;6274959;22;20082;-83
2022/12/07 12:08:22;;;;;;;4.63;1.17;;;5.80;96.30;;;;;;6249844;22;20028;-96
2022/12/07 12:11:21;;;;;;;2.10;0.60;;;5.80;96.30;;;;;;6255021;22;20029;-83
2022/12/07 12:14:29;;;;;;;2.75;0.70;;;5.70;96.60;;;;;;6275465;22;20027;-86
2022/12/07 12:17:00;;;;;;;2.05;0.50;;;5.70;96.30;;;;;;6250141;22;20011;-89
2022/12/07 12:19:42;;;;;;;4.25;0.80;;;5.60;96.40;;;;;;6250144;22;20047;-87
2022/12/07 12:22:20;;;;;;;3.35;0.70;;;5.70;96.40;;;;;;6274686;22;20043;-81
2022/12/07 12:24:56;;;;;;;1.73;0.47;;;5.70;96.40;;;;;;6277086;22;20016;-89
2022/12/07 12:27:37;;;;;;;1.98;0.50;;;5.70;96.30;;;;;;6278020;22;20051;-88
2022/12/07 12:30:30;;;;;;;2.10;0.50;;;5.80;96.30;;;;;;6279758;22;20041;-88
2022/12/07 12:33:17;;;;;;;2.10;0.73;;;5.90;96.20;;;;;;6278199;22;20023;-88
2022/12/07 12:35:46;;;;;;;6.43;1.00;;;5.90;96.00;;;;;;6276538;22;20019;-83
2022/12/07 12:38:33;;;;;;;2.83;0.80;;;5.90;96.00;;;;;;6200907;22;20011;-82
2022/12/07 12:41:02;;;;;;;3.80;0.80;;;6.00;96.00;;;;;;6276757;22;20030;-87
2022/12/07 12:43:49;;;;;;;3.28;1.08;;;6.10;95.90;;;;;;6276752;22;20023;-83
2022/12/07 12:46:33;;;;;;;2.50;0.93;;;6.40;95.60;;;;;;6277335;22;20103;-88
2022/12/07 12:49:40;;;;;;;3.70;0.75;;;6.70;95.40;;;;;;6252213;22;20024;-88
2022/12/07 12:52:29;;;;;;;2.35;0.68;;;6.90;95.20;;;;;;6277220;22;20016;-88
2022/12/07 12:55:20;;;;;;;5.28;0.77;;;7.10;94.90;;;;;;6277613;22;20020;-88
2022/12/07 12:58:33;;;;;;;2.97;1.05;;;6.90;94.80;;;;;;6276825;22;20020;-86
2022/12/07 13:01:31;;;;;;;5.18;0.70;;;6.70;95.00;;;;;;6220258;22;20020;-88
2022/12/07 13:04:30;;;;;;;4.45;1.35;;;6.60;95.20;;;;;;6276849;22;20016;-85
2022/12/07 13:06:58;;;;;;;2.88;0.77;;;6.50;95.20;;;;;;6276454;22;20019;-85
2022/12/07 13:09:32;;;;;;;3.05;1.05;;;6.30;95.30;;;;;;6251642;22;20027;-87
2022/12/07 13:12:11;;;;;;;7.95;1.45;;;6.30;95.50;;;;;;6277102;22;20023;-90
2022/12/07 13:14:55;;;;;;;5.43;1.05;;;6.20;95.60;;;;;;6252723;22;20346;-91
2022/12/07 13:17:30;;;;;;;4.30;1.15;;;6.20;95.70;;;;;;6278269;22;20457;-90
2022/12/07 13:20:03;;;;;;;2.70;0.60;;;6.20;95.60;;;;;;6252747;22;20089;-90
2022/12/07 13:22:38;;;;;;;3.83;0.60;;;6.20;95.70;;;;;;6252678;22;20019;-89
2022/12/07 13:25:11;;;;;;;3.80;0.70;;;6.30;95.70;;;;;;6277198;22;20062;-90
2022/12/07 13:27:46;;;;;;;1.60;0.70;;;6.40;95.60;;;;;;6278187;22;20019;-92
2022/12/07 13:30:25;;;;;;;3.42;0.80;;;6.50;95.50;;;;;;6276625;22;20051;-88
2022/12/07 13:33:05;;;;;;;4.88;1.10;;;6.60;95.30;;;;;;6275736;22;20417;-84
2022/12/07 13:35:42;;;;;;;5.80;1.00;;;6.60;95.10;;;;;;6275642;22;20030;-85
2022/12/07 13:38:27;;;;;;;4.00;0.85;;;6.60;95.00;;;;;;6276111;22;20054;-84
2022/12/07 13:41:10;;;;;;;4.57;0.77;;;6.60;95.00;;;;;;6276875;22;20015;-93
2022/12/07 13:44:13;;;;;;;2.42;0.77;;;6.60;95.00;;;;;;6277986;22;20103;-89
2022/12/07 13:46:47;;;;;;;4.43;1.40;;;6.60;95.00;;;;;;6275971;22;20023;-85
2022/12/07 13:49:25;;;;;;;3.47;0.70;;;6.70;95.10;;;;;;6251311;22;20020;-86
2022/12/07 13:52:24;;;;;;;2.92;0.60;;;6.70;95.00;;;;;;6276026;22;20087;-85
2022/12/07 13:55:32;;;;;;;4.93;0.77;;;6.80;95.00;;;;;;6251196;22;20405;-82
2022/12/07 13:58:17;;;;;;;;;;;6.90;94.80;;;;;;6276754;22;20020;-92
2022/12/07 14:00:55;;;;;;;2.50;0.70;;;6.90;94.70;;;;;;6251816;22;19916;-85
2022/12/07 14:03:31;;;;;;;3.30;0.65;;;7.00;94.70;;;;;;6277532;22;20017;-87
2022/12/07 14:06:18;;;;;;;4.72;0.60;;;7.10;94.60;;;;;;6251992;22;20103;-88
2022/12/07 14:08:45;;;;;;;3.65;0.60;;;7.10;94.40;;;;;;6276020;22;20476;-85
2022/12/07 14:11:26;;;;;;;7.07;1.40;;;7.00;94.40;;;;;;6252215;22;20024;-87
2022/12/07 14:14:01;;;;;;;3.38;0.80;;;6.90;94.50;;;;;;6251641;22;20106;-84
2022/12/07 14:17:18;;;;;;;1.83;0.50;;;6.80;94.60;;;;;;6276290;22;20026;-90
2022/12/07 14:19:54;;;;;;;2.92;0.77;;;6.60;94.80;;;;;;6179093;22;20019;-90
2022/12/07 14:22:39;;;;;;;2.95;0.30;;;6.50;94.90;;;;;;6269978;22;20019;-92
2022/12/07 14:25:23;;;;;;;1.58;0.20;;;6.20;95.00;;;;;;6276842;22;20024;-89
2022/12/07 14:28:00;;;;;;;2.53;0.20;;;5.90;95.10;;;;;;6277261;22;20022;-89
2022/12/07 14:30:34;;;;;;;1.48;0.30;;;5.60;95.40;;;;;;6276079;22;20016;-86
2022/12/07 14:33:03;;;;;;;1.23;0.17;;;5.40;95.70;;;;;;6250027;22;20030;-86
2022/12/07 14:35:40;;;;;;;0.52;0.20;;;5.30;95.90;;;;;;6275590;22;20106;-92
2022/12/07 14:38:27;;;;;;;3.28;0.45;;;5.20;96.00;;;;;;6254854;22;20023;-84
2022/12/07 14:41:50;;;;;;;1.55;0.30;;;5.10;96.10;;;;;;6250105;22;20036;-86
2022/12/07 14:43:48;;;;;;;1.08;0.20;;;5.10;96.20;;;;;;6276013;22;20020;-85
2022/12/07 14:46:52;;;;;;;1.52;0.20;;;5.10;96.20;;;;;;6276192;22;20510;-94
2022/12/07 14:49:42;;;;;;;1.45;0.40;;;5.20;96.20;;;;;;6255606;22;20035;-93
2022/12/07 14:53:07;;;;;;;1.42;0.25;;;5.10;96.20;;;;;;6276327;22;20047;-94
2022/12/07 14:55:54;;;;;;;0.98;0.28;;;5.20;96.20;;;;;;6254871;22;20066;-90
2022/12/07 14:58:21;;;;;;;2.15;0.40;;;5.20;96.20;;;;;;6251566;22;20102;-90
2022/12/07 15:00:55;;;;;;;1.05;0.20;;;5.20;96.20;;;;;;6252787;22;20019;-91
2022/12/07 15:03:25;;;;;;;0.47;0.20;;;5.20;96.20;;;;;;6251950;22;20019;-89
2022/12/07 15:06:03;;;;;;;;;;;;;;;;;;;;;
2022/12/07 15:09:25;;;;;;;1.17;0.20;;;5.30;96.20;;;;;;6215153;22;20527;-88
2022/12/07 15:12:05;;;;;;;2.50;0.25;;;5.30;96.20;;;;;;6252023;22;20032;-94
2022/12/07 15:14:32;;;;;;;0.38;0.20;;;5.30;96.20;;;;;;6251642;22;20019;-93
2022/12/07 15:20:00;;;;;;;0.93;0.20;;;5.30;96.20;;;;;;6275531;22;20390;-85
2022/12/07 15:23:02;;;;;;;1.08;0.20;;;5.30;96.30;;;;;;6250809;22;20056;-90
2022/12/07 15:26:21;;;;;;;0.93;0.17;;;5.30;96.30;;;;;;6129571;23;20017;-87
2022/12/07 15:37:14;;;;;;;0.82;0.28;;;5.20;96.30;;;;;;6144738;23;20021;-88
2022/12/07 15:40:15;;;;;;;1.83;0.40;;;5.10;96.40;;;;;;6112759;23;20017;-89
2022/12/07 15:46:12;;;;;;;0.75;0.20;;;5.00;96.50;;;;;;6276767;22;20095;-87
2022/12/07 15:48:48;;;;;;;1.67;0.25;;;5.00;96.50;;;;;;6252007;22;20052;-87
2022/12/07 15:51:20;;;;;;;0.73;0.22;;;5.00;96.50;;;;;;6227768;22;20019;-88
2022/12/07 15:53:54;;;;;;;0.95;0.30;;;5.00;96.50;;;;;;6276210;22;20042;-87
2022/12/07 15:56:35;;;;;;;1.08;0.40;;;5.00;96.60;;;;;;6252259;22;20342;-87
2022/12/07 15:59:35;;;;;;;1.40;0.40;;;5.00;96.60;;;;;;6252602;22;20020;-91
2022/12/07 16:02:24;;;;;;;2.72;0.80;;;5.10;96.60;;;;;;6256245;22;20018;-91
2022/12/07 16:05:38;;;;;;;2.08;0.90;;;5.10;96.60;;;;;;6278556;22;20393;-93
2022/12/07 16:08:05;;;;;;;5.05;0.90;;;5.10;96.60;;;;;;6279206;22;20454;-92
2022/12/07 16:14:48;;;;;;;2.83;1.00;;;5.10;96.50;;;;;;6189668;23;20378;-86
2022/12/07 16:20:40;;;;;;;3.17;1.30;;;5.10;96.50;;;;;;6160107;23;20040;-85
2022/12/07 16:23:08;;;;;;;4.90;2.28;;;5.10;96.50;;;;;;6190094;23;20459;-84
2022/12/07 16:25:38;;;;;;;4.63;2.25;;;5.10;96.50;;;;;;6165520;23;20031;-85
2022/12/07 16:28:08;;;;;;;4.47;1.95;;;5.10;96.50;;;;;;6191191;23;20104;-88
2022/12/07 16:30:35;;;;;;;3.75;1.70;;;5.10;96.50;;;;;;6191059;23;20047;-92
2022/12/07 16:33:02;;;;;;;4.78;2.10;;;5.10;96.60;;;;;;6166284;23;20025;-90
2022/12/07 16:35:32;;;;;;;3.70;2.00;;;5.10;96.60;;;;;;6190661;23;20024;-89
2022/12/07 16:37:59;;;;;;;4.15;2.15;;;5.10;96.60;;;;;;6165997;23;20080;-86
2022/12/07 16:40:40;;;;;;;5.93;1.92;;;5.00;96.60;;;;;;6167297;23;20519;-84
2022/12/07 16:43:14;;;;;;;5.57;2.08;;;5.00;96.60;;;;;;6189125;23;20016;-84
2022/12/07 16:45:47;;;;;;;3.70;1.50;;;5.00;96.60;;;;;;6252203;22;20015;-84
2022/12/07 16:48:26;;;;;;;4.30;1.60;;;4.90;96.90;;;;;;6277835;22;20020;-91
2022/12/07 16:51:47;;;;;;;;;;;;;;;;;;;;;
2022/12/07 16:55:22;;;;;;;3.60;1.02;;;4.90;96.70;;;;;;6268732;22;20079;-94
2022/12/07 16:58:42;;;;;;;1.73;0.77;;;4.90;96.70;;;;;;6259476;22;20016;-96
2022/12/07 17:01:13;;;;;;;3.35;1.10;;;4.90;96.70;;;;;;6259323;22;20019;-87
2022/12/07 17:03:43;;;;;;;3.22;1.13;;;4.90;96.70;;;;;;6253436;22;20015;-87
2022/12/07 17:06:22;;;;;;;2.63;0.90;;;4.80;96.70;;;;;;6276949;22;20012;-93
2022/12/07 17:08:57;;;;;;;4.57;1.23;;;4.90;96.70;;;;;;6277301;22;20019;-92
2022/12/07 17:11:43;;;;;;;2.50;1.00;;;4.80;96.70;;;;;;6254411;22;20099;-90
2022/12/07 17:16:56;;;;;;;2.15;0.90;;;4.80;96.70;;;;;;6276986;22;20019;-85
2022/12/07 17:19:29;;;;;;;3.53;1.10;;;4.80;96.70;;;;;;6276286;22;20458;-86
2022/12/07 17:22:02;;;;;;;2.83;1.40;;;4.80;96.70;;;;;;6228685;22;20020;-84
2022/12/07 17:24:30;;;;;;;3.25;1.25;;;4.80;96.70;;;;;;6276368;22;20011;-86
2022/12/07 17:27:00;;;;;;;3.47;1.35;;;4.70;96.60;;;;;;6275947;22;20008;-85
2022/12/07 17:29:31;;;;;;;3.80;1.60;;;4.70;96.60;;;;;;6250837;22;20024;-87
2022/12/07 17:32:10;;;;;;;4.15;2.03;;;4.70;96.60;;;;;;6253319;22;20043;-88
2022/12/07 17:34:50;;;;;;;3.67;1.60;;;4.70;96.60;;;;;;6251329;22;20134;-91
2022/12/07 17:37:20;;;;;;;5.60;1.17;;;4.70;96.60;;;;;;6252153;22;20020;-88
2022/12/07 17:39:58;;;;;;;2.53;1.23;;;4.70;96.60;;;;;;6252281;22;20090;-87
2022/12/07 17:42:47;;;;;;;3.88;1.45;;;4.70;96.60;;;;;;6251932;22;20015;-87
2022/12/07 17:45:45;;;;;;;2.88;1.40;;;4.70;96.60;;;;;;6233430;22;20016;-87
2022/12/07 17:48:39;;;;;;;3.63;1.40;;;4.60;96.60;;;;;;6277037;22;20091;-90
2022/12/07 17:55:03;;;;;;;3.80;1.90;;;4.60;96.70;;;;;;6255544;22;20023;-89
2022/12/07 17:57:30;;;;;;;3.92;2.08;;;4.60;96.70;;;;;;6276158;22;20026;-90
2022/12/07 18:00:21;;;;;;;4.68;2.22;;;4.60;96.70;;;;;;6277666;22;20448;-93
2022/12/07 18:02:54;;;;;;;3.55;2.20;;;4.50;96.70;;;;;;6265497;22;20513;-92
2022/12/07 18:05:21;;;;;;;4.90;2.20;;;4.50;96.70;;;;;;6251960;22;20023;-92
2022/12/07 18:07:51;;;;;;;6.25;2.95;;;4.50;96.70;;;;;;6251805;22;20016;-86
2022/12/07 18:10:25;;;;;;;6.00;2.50;;;4.50;96.70;;;;;;6251404;22;20342;-86
2022/12/07 18:16:20;;;;;;;4.22;2.38;;;4.50;96.70;;;;;;6275695;22;20045;-87
2022/12/07 18:19:16;;;;;;;4.05;2.13;;;4.50;96.70;;;;;;6254883;22;20022;-86
2022/12/07 18:21:50;;;;;;;6.35;2.40;;;4.50;96.80;;;;;;6275004;22;20020;-84
2022/12/07 18:24:54;;;;;;;5.18;2.80;;;4.50;96.80;;;;;;6255061;22;20024;-86
2022/12/07 18:27:50;;;;;;;6.93;2.72;;;4.50;96.80;;;;;;6250818;22;20020;-86
2022/12/07 18:35:08;;;;;;;5.13;2.97;;;4.50;96.70;;;;;;6157639;22;20465;-93
2022/12/07 18:38:56;;;;;;;;;;;;;;;;;;;;;
2022/12/07 18:41:37;;;;;;;6.10;2.95;;;4.50;96.70;;;;;;6255294;22;20024;-94
2022/12/07 18:44:12;;;;;;;7.03;3.72;;;4.50;96.70;;;;;;6276871;22;20102;-89
2022/12/07 18:47:00;;;;;;;5.60;3.35;;;4.50;96.70;;;;;;6252699;22;20020;-90
2022/12/07 18:49:40;;;;;;;5.22;3.17;;;4.50;96.70;;;;;;6255867;22;20023;-88
2022/12/07 18:52:09;;;;;;;8.90;3.72;;;4.50;96.70;;;;;;6276616;22;20024;-89
2022/12/07 18:54:37;;;;;;;8.73;3.75;;;4.50;96.70;;;;;;6251528;22;20020;-90
2022/12/07 18:57:12;;;;;;;9.70;4.43;;;4.40;96.70;;;;;;6251796;22;20327;-88
2022/12/07 18:59:57;;;;;;;;;;;4.50;96.80;;;;;;6228912;22;20023;-90
2022/12/07 19:02:29;;;;;;;6.53;3.45;;;4.40;96.80;;;;;;6253656;22;19950;-90
2022/12/07 19:04:57;;;;;;;7.97;3.58;;;4.40;96.80;;;;;;6251685;22;20042;-85
2022/12/07 19:07:29;;;;;;;6.47;3.10;;;4.40;96.80;;;;;;6250942;22;20385;-84
2022/12/07 19:09:59;;;;;;;8.15;3.50;;;4.40;96.80;;;;;;6250480;22;20023;-89
2022/12/07 19:12:27;;;;;;;6.85;3.22;;;4.50;96.80;;;;;;6251717;22;20024;-91
2022/12/07 19:15:08;;;;;;;6.40;2.83;;;4.50;96.70;;;;;;6252150;22;20020;-94
2022/12/07 19:17:40;;;;;;;4.75;2.83;;;4.50;96.70;;;;;;6278280;22;20047;-86
2022/12/07 19:20:59;;;;;;;5.28;2.45;;;4.50;96.70;;;;;;6250606;22;20020;-96
2022/12/07 19:23:27;;;;;;;6.35;3.00;;;4.50;96.70;;;;;;6250772;22;20024;-93